McBee, South Carolina
Current Conditions -  °F | °C
As of 8:15 PM on Tuesday 21 Oct 2014 (Local Time) from KHVS Reporting Station
Scattered Clouds Scattered Clouds  
Wind Chill: 63°   Ceiling: Unl
Heat Index: 63°   Visibility: 10mi
Dew Point: 37°   Wind: 0mph
Humidity: 39%   Direction: NA
Pressure: 29.9"   Gusts: NA
Location:  34.47°N, 80.26°W
Report Text: KHVS 220015Z AUTO 00000KT 10SM SCT070 17/03 A2990 RMK AO2
Loading
Personal Weather Stations






























Interactive Weather Map
Tropical Storm Tracking
New forecast layout! Learn more

10-Day Weather Forecast

Advertisements
Track Severe Weather on mobile